createdAt,value
2023-03-25T00:00:57.825Z,51.60
2023-03-25T00:03:28.594Z,51.50
2023-03-25T00:05:57.682Z,52.00
2023-03-25T00:08:27.287Z,52.50
2023-03-25T00:10:56.184Z,51.90
2023-03-25T00:13:24.564Z,51.80
2023-03-25T00:15:53.845Z,51.90
2023-03-25T00:18:22.911Z,52.10
2023-03-25T00:20:52.829Z,51.70
2023-03-25T00:23:22.359Z,52.00
2023-03-25T00:25:52.897Z,52.00
2023-03-25T00:28:21.185Z,51.80
2023-03-25T00:30:49.229Z,51.70
2023-03-25T00:33:18.673Z,51.70
2023-03-25T00:35:49.475Z,51.40
2023-03-25T00:38:19.396Z,51.30
2023-03-25T00:40:48.541Z,51.40
2023-03-25T00:43:16.782Z,51.60
2023-03-25T00:45:44.670Z,51.50
2023-03-25T00:48:13.471Z,51.30
2023-03-25T00:50:41.968Z,51.30
2023-03-25T00:53:09.861Z,51.20
2023-03-25T00:55:39.157Z,51.00
2023-03-25T00:58:07.239Z,50.90
2023-03-25T01:00:36.114Z,51.00
2023-03-25T01:03:05.572Z,51.10
2023-03-25T01:05:33.498Z,51.00
2023-03-25T01:08:02.113Z,51.10
2023-03-25T01:10:31.194Z,51.00
2023-03-25T01:13:00.693Z,51.00
2023-03-25T01:15:28.510Z,50.90
2023-03-25T01:17:56.750Z,51.00
2023-03-25T01:20:26.585Z,51.00
2023-03-25T01:22:54.942Z,51.00
2023-03-25T01:25:22.889Z,51.00
2023-03-25T01:27:51.344Z,51.10
2023-03-25T01:30:21.184Z,51.20
2023-03-25T01:32:49.028Z,51.20
2023-03-25T01:35:17.326Z,51.70
2023-03-25T01:37:46.879Z,51.60
2023-03-25T01:40:20.332Z,51.40
2023-03-25T01:42:48.366Z,51.60
2023-03-25T01:45:29.972Z,51.80
2023-03-25T01:48:07.274Z,52.20
2023-03-25T01:50:37.147Z,51.90
2023-03-25T01:53:07.538Z,52.50
2023-03-25T01:55:38.521Z,52.00
2023-03-25T01:58:11.895Z,52.20
2023-03-25T02:00:44.112Z,52.40
2023-03-25T02:03:13.256Z,52.30
2023-03-25T02:05:46.018Z,52.30
2023-03-25T02:08:15.842Z,52.50
2023-03-25T02:10:46.966Z,52.00
2023-03-25T02:13:16.903Z,52.10
2023-03-25T02:16:06.965Z,52.20
2023-03-25T02:18:46.020Z,52.20
2023-03-25T02:21:46.302Z,52.30
2023-03-25T02:24:54.132Z,52.90
2023-03-25T02:27:52.620Z,52.50
2023-03-25T02:30:52.242Z,52.60
2023-03-25T02:33:45.743Z,52.50
2023-03-25T02:36:37.965Z,52.50
2023-03-25T02:39:13.344Z,52.60
2023-03-25T02:41:48.474Z,52.40
2023-03-25T02:44:22.746Z,52.70
2023-03-25T02:46:55.177Z,52.80
2023-03-25T02:49:27.862Z,52.60
2023-03-25T02:52:01.335Z,52.60
2023-03-25T02:54:33.710Z,53.00
2023-03-25T02:57:03.567Z,53.50
2023-03-25T02:59:33.597Z,53.10
2023-03-25T03:02:05.983Z,53.20
2023-03-25T03:04:34.184Z,53.20
2023-03-25T03:07:02.313Z,53.10
2023-03-25T03:09:39.960Z,53.00
2023-03-25T03:12:25.175Z,53.60
2023-03-25T03:15:12.419Z,53.10
2023-03-25T03:17:50.229Z,53.10
2023-03-25T03:20:27.655Z,53.50
2023-03-25T03:23:06.136Z,54.00
2023-03-25T03:25:39.289Z,54.10
2023-03-25T03:28:11.514Z,53.80
2023-03-25T03:30:46.356Z,54.00
2023-03-25T03:33:21.878Z,53.90
2023-03-25T03:35:57.247Z,53.80
2023-03-25T03:38:28.945Z,53.80
2023-03-25T03:41:02.350Z,53.70
2023-03-25T03:43:34.647Z,53.60
2023-03-25T03:46:07.080Z,54.00
2023-03-25T03:48:41.281Z,53.50
2023-03-25T03:51:12.546Z,53.80
2023-03-25T03:53:45.628Z,53.60
2023-03-25T03:56:19.430Z,53.60
2023-03-25T03:58:49.525Z,53.70
2023-03-25T04:01:28.149Z,53.60
2023-03-25T04:03:59.230Z,53.40
2023-03-25T04:06:35.624Z,53.50
2023-03-25T04:09:10.252Z,53.40
2023-03-25T04:11:45.131Z,53.30
2023-03-25T04:14:14.941Z,53.40
2023-03-25T04:16:45.927Z,53.50
2023-03-25T04:19:18.383Z,53.40
2023-03-25T04:21:47.984Z,53.20
2023-03-25T04:24:19.561Z,53.30
2023-03-25T04:26:49.946Z,53.10
2023-03-25T04:29:18.983Z,53.10
2023-03-25T04:31:49.864Z,53.10
2023-03-25T04:34:20.445Z,53.00
2023-03-25T04:36:50.317Z,52.80
2023-03-25T04:39:22.325Z,52.70
2023-03-25T04:41:54.002Z,52.70
2023-03-25T04:44:23.556Z,52.90
2023-03-25T04:46:51.797Z,52.90
2023-03-25T04:49:21.911Z,52.70
2023-03-25T04:51:51.390Z,52.80
2023-03-25T04:54:19.965Z,52.90
2023-03-25T04:56:49.705Z,52.70
2023-03-25T04:59:19.792Z,52.60
2023-03-25T05:01:48.242Z,52.70
2023-03-25T05:04:18.420Z,52.60
2023-03-25T05:06:49.293Z,52.60
2023-03-25T05:09:20.132Z,52.50
2023-03-25T05:11:49.195Z,52.50
2023-03-25T05:14:20.900Z,52.30
2023-03-25T05:16:49.529Z,52.30
2023-03-25T05:19:19.042Z,52.30
2023-03-25T05:21:48.608Z,52.20
2023-03-25T05:24:16.866Z,52.10
2023-03-25T05:26:44.764Z,52.10
2023-03-25T05:29:14.913Z,52.00
2023-03-25T05:31:46.332Z,51.80
2023-03-25T05:34:17.041Z,51.90
2023-03-25T05:36:45.131Z,51.90
2023-03-25T05:39:13.368Z,51.90
2023-03-25T05:41:41.755Z,51.70
2023-03-25T05:44:15.416Z,51.50
2023-03-25T05:46:45.029Z,51.50
2023-03-25T05:49:13.048Z,51.50
2023-03-25T05:51:41.813Z,51.70
2023-03-25T05:54:13.560Z,51.40
2023-03-25T05:56:42.567Z,51.40
2023-03-25T05:59:11.408Z,51.30
2023-03-25T06:01:39.286Z,51.20
2023-03-25T06:04:10.500Z,51.30
2023-03-25T06:06:38.598Z,51.10
2023-03-25T06:09:07.624Z,51.10
2023-03-25T06:11:38.529Z,51.20
2023-03-25T06:14:07.833Z,51.20
2023-03-25T06:16:36.114Z,51.20
2023-03-25T06:19:05.102Z,51.00
2023-03-25T06:21:37.256Z,50.90
2023-03-25T06:24:05.710Z,50.90
2023-03-25T06:26:33.592Z,51.00
2023-03-25T06:29:03.994Z,51.00
2023-03-25T06:31:33.627Z,50.90
2023-03-25T06:34:02.468Z,51.00
2023-03-25T06:36:31.294Z,51.00
2023-03-25T06:39:00.817Z,50.90
2023-03-25T06:41:29.881Z,51.10
2023-03-25T06:44:24.163Z,51.10
2023-03-25T06:46:53.058Z,51.00
2023-03-25T06:49:40.807Z,51.00
2023-03-25T06:52:08.838Z,51.20
2023-03-25T06:54:38.496Z,51.30
2023-03-25T06:57:06.442Z,51.20
2023-03-25T06:59:34.720Z,51.10
2023-03-25T07:02:02.741Z,51.10
2023-03-25T07:04:30.869Z,50.90
2023-03-25T07:06:58.894Z,51.00
2023-03-25T07:09:27.169Z,50.80
2023-03-25T07:11:56.451Z,51.30
2023-03-25T07:14:24.606Z,50.80
2023-03-25T07:16:52.484Z,50.40
2023-03-25T07:19:21.001Z,50.70
2023-03-25T07:21:48.957Z,50.90
2023-03-25T07:24:17.246Z,51.10
2023-03-25T07:26:45.368Z,51.10
2023-03-25T07:29:16.279Z,51.30
2023-03-25T07:31:44.301Z,51.20
2023-03-25T07:34:12.532Z,51.20
2023-03-25T07:36:40.423Z,50.80
2023-03-25T07:39:08.584Z,50.50
2023-03-25T07:41:36.520Z,50.30
2023-03-25T07:44:12.250Z,50.20
2023-03-25T07:46:41.807Z,50.30
2023-03-25T07:49:09.833Z,49.80
2023-03-25T07:51:37.830Z,50.00
2023-03-25T07:54:06.338Z,50.10
2023-03-25T07:56:34.992Z,50.20
2023-03-25T07:59:03.269Z,50.30
2023-03-25T08:01:31.674Z,50.30
2023-03-25T08:04:01.086Z,50.50
2023-03-25T08:06:29.036Z,50.50
2023-03-25T08:08:57.110Z,50.50
2023-03-25T08:11:25.231Z,50.60
2023-03-25T08:13:53.392Z,50.80
2023-03-25T08:16:21.867Z,51.00
2023-03-25T08:18:52.720Z,51.10
2023-03-25T08:21:25.210Z,51.20
2023-03-25T08:23:58.215Z,51.40
2023-03-25T08:26:27.062Z,51.40
2023-03-25T08:28:57.716Z,51.40
2023-03-25T08:31:31.018Z,51.80
2023-03-25T08:34:00.034Z,51.10
2023-03-25T08:36:29.683Z,50.90
2023-03-25T08:38:57.880Z,50.50
2023-03-25T08:41:26.804Z,50.60
2023-03-25T08:43:54.803Z,50.60
2023-03-25T08:46:23.327Z,50.60
2023-03-25T08:48:51.227Z,50.30
2023-03-25T08:51:19.359Z,50.40
2023-03-25T08:53:48.744Z,50.50
2023-03-25T08:56:17.305Z,50.70
2023-03-25T08:58:45.460Z,50.90
2023-03-25T09:01:13.800Z,50.90
2023-03-25T09:03:42.201Z,50.80
2023-03-25T09:06:10.848Z,50.90
2023-03-25T09:08:38.824Z,50.80
2023-03-25T09:11:08.545Z,50.70
2023-03-25T09:13:36.602Z,50.80
2023-03-25T09:16:04.998Z,50.80
2023-03-25T09:18:33.035Z,51.50
2023-03-25T09:21:01.702Z,51.70
2023-03-25T09:23:30.055Z,52.00
2023-03-25T09:26:02.821Z,50.80
2023-03-25T09:28:32.675Z,51.30
2023-03-25T09:31:00.835Z,51.80
2023-03-25T09:33:28.899Z,52.70
2023-03-25T09:35:57.325Z,53.30
2023-03-25T09:38:25.420Z,52.40
2023-03-25T09:40:53.736Z,49.40
2023-03-25T09:43:45.650Z,46.00
2023-03-25T09:46:13.914Z,43.90
2023-03-25T09:48:43.739Z,44.00
2023-03-25T09:51:16.154Z,44.20
2023-03-25T09:53:49.473Z,42.60
2023-03-25T09:56:20.624Z,42.40
2023-03-25T09:58:52.590Z,43.10
2023-03-25T10:01:28.433Z,43.30
2023-03-25T10:04:30.914Z,43.60
2023-03-25T10:07:14.313Z,43.60
2023-03-25T10:09:51.763Z,43.30
2023-03-25T10:12:33.595Z,43.90
2023-03-25T10:15:14.715Z,45.00
2023-03-25T10:17:56.812Z,44.80
2023-03-25T10:20:37.095Z,45.00
2023-03-25T10:23:11.026Z,45.00
2023-03-25T10:25:42.589Z,45.40
2023-03-25T10:28:17.528Z,45.10
2023-03-25T10:30:50.994Z,45.20
2023-03-25T10:33:25.830Z,45.30
2023-03-25T10:35:55.934Z,45.60
2023-03-25T10:38:25.022Z,45.90
2023-03-25T10:41:00.688Z,45.90
2023-03-25T10:43:32.103Z,46.10
2023-03-25T10:46:09.356Z,46.30
2023-03-25T10:48:37.983Z,46.70
2023-03-25T10:51:10.810Z,46.90
2023-03-25T10:53:41.320Z,47.00
2023-03-25T10:56:13.740Z,47.10
2023-03-25T10:58:44.212Z,47.30
2023-03-25T11:01:15.922Z,47.60
2023-03-25T11:03:45.211Z,47.80
2023-03-25T11:06:24.207Z,47.70
2023-03-25T11:08:59.954Z,47.60
2023-03-25T11:11:35.156Z,47.50
2023-03-25T11:14:03.709Z,47.50
2023-03-25T11:16:35.339Z,47.40
2023-03-25T11:19:04.210Z,47.40
2023-03-25T11:21:34.697Z,47.40
2023-03-25T11:24:02.995Z,47.40
2023-03-25T11:26:38.695Z,48.00
2023-03-25T11:29:09.713Z,49.30
2023-03-25T11:31:39.724Z,50.20
2023-03-25T11:34:18.331Z,50.40
2023-03-25T11:36:54.963Z,49.10
2023-03-25T11:39:34.340Z,48.50
2023-03-25T11:42:15.564Z,47.20
2023-03-25T11:44:50.311Z,47.40
2023-03-25T11:47:24.554Z,46.60
2023-03-25T11:49:54.540Z,46.40
2023-03-25T11:52:24.798Z,45.90
2023-03-25T11:54:54.946Z,46.00
2023-03-25T11:57:27.543Z,45.20
2023-03-25T12:00:10.921Z,45.60
2023-03-25T12:02:41.654Z,45.50
2023-03-25T12:05:16.469Z,46.10
2023-03-25T12:07:47.541Z,45.30
2023-03-25T12:10:21.370Z,45.90
2023-03-25T12:13:00.800Z,45.50
2023-03-25T12:15:41.328Z,45.80
2023-03-25T12:18:36.401Z,45.70
2023-03-25T12:21:13.747Z,45.30
2023-03-25T12:23:51.457Z,45.80
2023-03-25T12:26:26.071Z,45.70
2023-03-25T12:29:08.150Z,45.50
2023-03-25T12:31:50.321Z,45.20
2023-03-25T12:34:30.842Z,45.10
2023-03-25T12:37:07.940Z,45.50
2023-03-25T12:39:47.510Z,45.60
2023-03-25T12:42:33.606Z,46.30
2023-03-25T12:45:24.673Z,46.60
2023-03-25T12:47:59.672Z,45.90
2023-03-25T12:50:44.879Z,46.10
2023-03-25T12:53:27.980Z,45.90
2023-03-25T12:56:11.115Z,45.30
2023-03-25T12:58:57.274Z,42.90
2023-03-25T13:01:36.142Z,43.30
2023-03-25T13:04:42.809Z,43.60
2023-03-25T13:07:16.763Z,43.60
2023-03-25T13:09:57.445Z,43.80
2023-03-25T13:12:32.179Z,44.70
2023-03-25T13:15:07.835Z,45.30
2023-03-25T13:17:40.692Z,46.20
2023-03-25T13:20:12.314Z,46.10
2023-03-25T13:22:44.866Z,47.10
2023-03-25T13:25:21.359Z,46.40
2023-03-25T13:27:51.913Z,46.30
2023-03-25T13:30:27.592Z,46.30
2023-03-25T13:33:01.862Z,46.00
2023-03-25T13:35:38.473Z,44.90
2023-03-25T13:38:14.098Z,45.10
2023-03-25T13:40:47.692Z,45.10
2023-03-25T13:43:25.985Z,45.10
2023-03-25T13:46:01.008Z,44.30
2023-03-25T13:48:35.969Z,43.70
2023-03-25T13:51:07.916Z,43.40
2023-03-25T13:53:44.061Z,43.70
2023-03-25T13:57:00.242Z,43.30
2023-03-25T13:59:56.096Z,42.90
2023-03-25T14:02:43.753Z,43.30
2023-03-25T14:05:47.750Z,42.80
2023-03-25T14:08:45.830Z,42.40
2023-03-25T14:11:21.116Z,42.70
2023-03-25T14:13:54.984Z,42.30
2023-03-25T14:16:27.189Z,43.00
2023-03-25T14:19:00.667Z,42.90
2023-03-25T14:21:34.967Z,42.50
2023-03-25T14:24:13.488Z,42.60
2023-03-25T14:26:49.646Z,42.70
2023-03-25T14:29:29.775Z,41.60
2023-03-25T14:32:06.845Z,42.40
2023-03-25T14:34:35.625Z,42.20
2023-03-25T14:37:29.468Z,42.50
2023-03-25T14:40:02.462Z,42.10
2023-03-25T14:42:59.393Z,42.50
2023-03-25T14:45:42.210Z,42.50
2023-03-25T14:48:26.271Z,43.00
2023-03-25T14:51:10.934Z,43.80
2023-03-25T14:53:41.310Z,44.00
2023-03-25T14:56:18.983Z,43.90
2023-03-25T14:58:52.122Z,44.40
2023-03-25T15:01:22.528Z,44.40
2023-03-25T15:03:51.168Z,44.60
2023-03-25T15:06:29.997Z,45.70
2023-03-25T15:09:00.903Z,45.60
2023-03-25T15:11:35.217Z,45.90
2023-03-25T15:14:05.556Z,46.20
2023-03-25T15:16:36.279Z,46.30
2023-03-25T15:19:08.280Z,46.60
2023-03-25T15:22:11.085Z,46.80
2023-03-25T15:24:40.822Z,48.00
2023-03-25T15:27:21.331Z,48.00
2023-03-25T15:30:02.884Z,48.20
2023-03-25T15:32:55.863Z,48.80
2023-03-25T15:35:39.610Z,48.80
2023-03-25T15:38:32.328Z,48.80
2023-03-25T15:41:13.690Z,48.90
2023-03-25T15:44:19.922Z,49.40
2023-03-25T15:47:03.751Z,49.40
2023-03-25T15:50:18.910Z,49.10
2023-03-25T15:53:32.529Z,49.00
2023-03-25T15:56:12.319Z,49.00
2023-03-25T15:58:45.863Z,48.60
2023-03-25T16:01:21.956Z,48.80
2023-03-25T16:03:58.302Z,49.00
2023-03-25T16:06:28.352Z,49.10
2023-03-25T16:08:59.260Z,49.20
2023-03-25T16:11:29.351Z,49.40
2023-03-25T16:14:06.694Z,49.50
2023-03-25T16:16:38.469Z,50.00
2023-03-25T16:19:11.296Z,49.80
2023-03-25T16:21:40.464Z,49.80
2023-03-25T16:24:10.498Z,49.60
2023-03-25T16:26:40.738Z,49.70
2023-03-25T16:29:13.815Z,50.00
2023-03-25T16:31:51.528Z,50.10
2023-03-25T16:34:19.771Z,50.30
2023-03-25T16:36:50.099Z,50.50
2023-03-25T16:39:18.960Z,50.70
2023-03-25T16:41:48.048Z,50.60
2023-03-25T16:44:19.221Z,50.50
2023-03-25T16:46:49.494Z,50.40
2023-03-25T16:49:26.348Z,50.20
2023-03-25T16:51:55.646Z,50.30
2023-03-25T16:54:32.207Z,50.10
2023-03-25T16:57:01.737Z,50.40
2023-03-25T16:59:33.045Z,50.40
2023-03-25T17:02:04.496Z,50.60
2023-03-25T17:04:42.041Z,50.80
2023-03-25T17:07:15.211Z,51.00
2023-03-25T17:09:44.924Z,50.90
2023-03-25T17:12:18.628Z,50.90
2023-03-25T17:14:50.221Z,51.10
2023-03-25T17:17:32.298Z,50.90
2023-03-25T17:20:05.867Z,50.90
2023-03-25T17:22:36.192Z,50.80
2023-03-25T17:25:18.527Z,50.40
2023-03-25T17:27:49.262Z,50.60
2023-03-25T17:30:20.239Z,50.40
2023-03-25T17:32:51.047Z,50.30
2023-03-25T17:35:21.915Z,50.10
2023-03-25T17:37:51.293Z,49.80
2023-03-25T17:40:24.158Z,49.70
2023-03-25T17:42:52.862Z,49.70
2023-03-25T17:45:22.863Z,49.60
2023-03-25T17:47:52.886Z,49.60
2023-03-25T17:50:23.028Z,49.60
2023-03-25T17:52:51.002Z,49.50
2023-03-25T17:55:19.142Z,49.40
2023-03-25T17:57:49.734Z,49.40
2023-03-25T18:00:19.570Z,49.40
2023-03-25T18:02:47.939Z,49.60
2023-03-25T18:05:17.459Z,49.70
2023-03-25T18:07:45.393Z,49.80
2023-03-25T18:10:17.758Z,49.90
2023-03-25T18:12:46.023Z,49.70
2023-03-25T18:15:14.345Z,49.50
2023-03-25T18:17:42.351Z,49.40
2023-03-25T18:20:29.364Z,49.40
2023-03-25T18:22:57.695Z,49.60
2023-03-25T18:25:26.546Z,49.60
2023-03-25T18:27:56.385Z,49.50
2023-03-25T18:30:28.603Z,49.50
2023-03-25T18:32:57.070Z,49.50
2023-03-25T18:35:27.307Z,49.60
2023-03-25T18:37:55.556Z,49.60
2023-03-25T18:40:28.392Z,49.60
2023-03-25T18:42:56.861Z,49.80
2023-03-25T18:45:26.493Z,49.60
2023-03-25T18:47:56.006Z,49.70
2023-03-25T18:50:29.836Z,49.60
2023-03-25T18:52:58.742Z,49.70
2023-03-25T18:55:29.037Z,49.80
2023-03-25T18:57:59.450Z,49.80
2023-03-25T19:00:31.152Z,49.90
2023-03-25T19:02:59.345Z,50.10
2023-03-25T19:05:29.115Z,50.10
2023-03-25T19:07:57.379Z,50.30
2023-03-25T19:10:27.215Z,50.00
2023-03-25T19:12:55.976Z,50.10
2023-03-25T19:15:27.789Z,50.00
2023-03-25T19:17:58.512Z,50.00
2023-03-25T19:20:32.031Z,49.80
2023-03-25T19:23:01.338Z,49.90
2023-03-25T19:25:29.942Z,49.90
2023-03-25T19:27:58.345Z,50.00
2023-03-25T19:30:26.796Z,49.90
2023-03-25T19:32:57.178Z,49.90
2023-03-25T19:35:26.414Z,50.10
2023-03-25T19:37:57.072Z,50.30
2023-03-25T19:40:28.160Z,50.60
2023-03-25T19:42:58.133Z,50.50
2023-03-25T19:45:27.571Z,50.40
2023-03-25T19:47:55.741Z,50.40
2023-03-25T19:50:25.997Z,50.40
2023-03-25T19:52:56.063Z,50.50
2023-03-25T19:55:24.950Z,50.90
2023-03-25T19:57:53.772Z,50.50
2023-03-25T20:00:26.095Z,50.60
2023-03-25T20:02:58.152Z,50.60
2023-03-25T20:05:26.607Z,50.60
2023-03-25T20:07:56.529Z,50.70
2023-03-25T20:10:27.740Z,50.90
2023-03-25T20:12:56.514Z,51.30
2023-03-25T20:15:25.708Z,51.00
2023-03-25T20:17:55.075Z,50.90
2023-03-25T20:20:24.435Z,51.00
2023-03-25T20:22:52.601Z,51.00
2023-03-25T20:25:22.149Z,51.20
2023-03-25T20:27:50.448Z,51.50
2023-03-25T20:30:19.885Z,51.50
2023-03-25T20:32:49.066Z,51.60
2023-03-25T20:35:18.912Z,52.10
2023-03-25T20:37:48.864Z,51.90
2023-03-25T20:40:21.849Z,51.70
2023-03-25T20:42:54.791Z,52.00
2023-03-25T20:45:29.151Z,51.70
2023-03-25T20:47:57.236Z,51.70
2023-03-25T20:50:26.381Z,51.90
2023-03-25T20:52:54.251Z,52.00
2023-03-25T20:55:22.456Z,52.10
2023-03-25T20:57:51.871Z,52.20
2023-03-25T21:00:21.343Z,52.30
2023-03-25T21:02:50.685Z,52.40
2023-03-25T21:05:18.835Z,52.50
2023-03-25T21:07:46.915Z,52.60
2023-03-25T21:10:15.053Z,52.80
2023-03-25T21:12:44.836Z,52.70
2023-03-25T21:15:14.709Z,52.70
2023-03-25T21:17:44.775Z,52.70
2023-03-25T21:20:13.421Z,52.80
2023-03-25T21:22:44.054Z,52.90
2023-03-25T21:25:15.132Z,52.90
2023-03-25T21:27:45.143Z,53.00
2023-03-25T21:30:14.848Z,52.80
2023-03-25T21:32:44.727Z,52.90
2023-03-25T21:35:13.217Z,52.70
2023-03-25T21:37:41.215Z,52.60
2023-03-25T21:40:11.965Z,52.70
2023-03-25T21:42:41.201Z,52.70
2023-03-25T21:45:12.018Z,53.20
2023-03-25T21:47:41.210Z,52.60
2023-03-25T21:50:13.494Z,52.60
2023-03-25T21:52:46.416Z,52.60
2023-03-25T21:55:15.559Z,52.50
2023-03-25T21:57:44.738Z,52.50
2023-03-25T22:00:17.111Z,52.40
2023-03-25T22:02:46.617Z,52.40
2023-03-25T22:05:17.784Z,52.40
2023-03-25T22:07:45.715Z,52.30
2023-03-25T22:10:13.868Z,52.30
2023-03-25T22:12:41.933Z,52.50
2023-03-25T22:15:11.529Z,52.40
2023-03-25T22:17:39.590Z,52.30
2023-03-25T22:20:10.032Z,52.20
2023-03-25T22:22:39.336Z,52.20
2023-03-25T22:25:08.915Z,52.30
2023-03-25T22:27:37.713Z,52.30
2023-03-25T22:30:10.014Z,52.20
2023-03-25T22:32:38.188Z,52.10
2023-03-25T22:35:07.535Z,52.10
2023-03-25T22:37:36.828Z,52.20
2023-03-25T22:40:08.903Z,52.10
2023-03-25T22:42:36.756Z,52.10
2023-03-25T22:45:06.974Z,52.00
2023-03-25T22:47:35.189Z,52.00
2023-03-25T22:50:03.653Z,52.00
2023-03-25T22:52:31.937Z,52.10
2023-03-25T22:55:00.131Z,52.00
2023-03-25T22:57:29.571Z,51.90
2023-03-25T22:59:57.575Z,51.90
2023-03-25T23:02:25.838Z,52.00
2023-03-25T23:04:54.124Z,52.00
2023-03-25T23:07:22.114Z,51.80
2023-03-25T23:09:50.441Z,51.80
2023-03-25T23:12:26.386Z,51.70
2023-03-25T23:14:57.133Z,51.60
2023-03-25T23:17:26.641Z,51.60
2023-03-25T23:19:54.614Z,51.60
2023-03-25T23:22:22.624Z,51.50
2023-03-25T23:24:50.794Z,51.40
2023-03-25T23:27:18.853Z,51.40
2023-03-25T23:29:47.237Z,51.30
2023-03-25T23:32:16.676Z,51.10
2023-03-25T23:34:45.416Z,51.10
2023-03-25T23:37:13.589Z,50.90
2023-03-25T23:39:42.202Z,50.90
2023-03-25T23:42:10.258Z,50.90
2023-03-25T23:44:38.419Z,50.80
2023-03-25T23:47:06.990Z,50.80
2023-03-25T23:49:38.276Z,50.40
2023-03-25T23:52:11.373Z,50.70
2023-03-25T23:54:40.597Z,50.70
2023-03-25T23:57:09.770Z,50.60
2023-03-25T23:59:37.882Z,50.40
